Casa Blanca, New Mexico
Current Conditions -  °F | °C
As of 4:35 PM on Thursday 18 Dec 2014 (Local Time) from KGNT Reporting Station
Overcast Overcast  
Wind Chill: 24°   Ceiling: 5500
Heat Index: 33°   Visibility: 10mi
Dew Point: 27°   Wind: 14mph
Humidity: 78%   Direction: 300°WNW
Pressure: 30.12"   Gusts: 21mph
Location:  35.04°N, 107.47°W
Report Text: KGNT 182335Z AUTO 30012G18KT 10SM BKN055 OVC065 01/M03 A3012 RMK AO2 LTG DSNT S T00081027
Loading
Personal Weather Stations






























Interactive Weather Map New forecast layout! Learn more

10-Day Weather Forecast

Advertisements
Track Severe Weather on mobile